createdAt,value
2019-01-26T00:01:54.072Z,16.82
2019-01-26T00:04:27.528Z,17.92
2019-01-26T00:07:01.458Z,17.10
2019-01-26T00:09:34.826Z,17.40
2019-01-26T00:12:08.670Z,18.45
2019-01-26T00:14:41.482Z,17.80
2019-01-26T00:17:14.940Z,17.52
2019-01-26T00:19:48.635Z,17.60
2019-01-26T00:22:22.350Z,18.65
2019-01-26T00:24:55.335Z,16.52
2019-01-26T00:27:28.760Z,16.32
2019-01-26T00:30:01.834Z,16.15
2019-01-26T00:32:35.640Z,15.25
2019-01-26T00:35:08.120Z,15.43
2019-01-26T00:37:41.256Z,17.15
2019-01-26T00:40:15.981Z,15.58
2019-01-26T00:42:49.411Z,16.50
2019-01-26T00:45:22.926Z,16.15
2019-01-26T00:47:56.216Z,17.57
2019-01-26T00:50:29.706Z,17.60
2019-01-26T00:53:03.515Z,15.40
2019-01-26T00:55:36.662Z,16.07
2019-01-26T00:58:10.517Z,13.30
2019-01-26T01:00:43.992Z,14.98
2019-01-26T01:03:17.103Z,14.03
2019-01-26T01:05:53.058Z,14.80
2019-01-26T01:08:25.955Z,13.45
2019-01-26T01:10:59.300Z,14.87
2019-01-26T01:13:33.075Z,15.93
2019-01-26T01:16:06.195Z,13.68
2019-01-26T01:18:39.530Z,13.75
2019-01-26T01:21:12.967Z,13.25
2019-01-26T01:23:46.645Z,13.90
2019-01-26T01:26:20.124Z,13.75
2019-01-26T01:28:53.532Z,13.53
2019-01-26T01:31:27.167Z,12.98
2019-01-26T01:34:00.895Z,12.40
2019-01-26T01:36:34.346Z,11.88
2019-01-26T01:39:08.444Z,11.95
2019-01-26T01:41:41.456Z,11.65
2019-01-26T01:44:15.036Z,11.85
2019-01-26T01:46:48.846Z,11.33
2019-01-26T01:49:21.636Z,11.40
2019-01-26T01:51:55.297Z,11.48
2019-01-26T01:54:28.637Z,12.37
2019-01-26T01:57:02.029Z,12.05
2019-01-26T01:59:34.994Z,11.03
2019-01-26T02:02:08.539Z,9.63
2019-01-26T02:04:41.530Z,10.88
2019-01-26T02:07:14.998Z,11.75
2019-01-26T02:09:50.455Z,11.53
2019-01-26T02:12:23.044Z,12.65
2019-01-26T02:14:56.534Z,11.97
2019-01-26T02:17:29.631Z,13.20
2019-01-26T02:20:03.459Z,12.90
2019-01-26T02:22:36.826Z,13.05
2019-01-26T02:25:10.310Z,13.32
2019-01-26T02:27:43.917Z,13.18
2019-01-26T02:30:18.715Z,14.07
2019-01-26T02:32:52.497Z,13.75
2019-01-26T02:35:26.357Z,13.65
2019-01-26T02:37:59.382Z,14.60
2019-01-26T02:40:32.760Z,15.90
2019-01-26T02:43:05.626Z,16.55
2019-01-26T02:45:38.612Z,15.98
2019-01-26T02:48:10.782Z,16.10
2019-01-26T02:50:43.786Z,15.78
2019-01-26T02:53:17.069Z,15.90
2019-01-26T02:55:50.356Z,16.37
2019-01-26T02:58:23.779Z,16.75
2019-01-26T03:00:57.091Z,17.00
2019-01-26T03:03:30.249Z,15.83
2019-01-26T03:06:03.626Z,18.00
2019-01-26T03:08:36.522Z,18.90
2019-01-26T03:11:09.531Z,19.98
2019-01-26T03:13:42.495Z,18.87
2019-01-26T03:16:15.962Z,18.87
2019-01-26T03:18:49.455Z,19.90
2019-01-26T03:21:22.867Z,22.70
2019-01-26T03:23:55.641Z,21.17
2019-01-26T03:26:29.872Z,21.02
2019-01-26T03:29:04.242Z,21.17
2019-01-26T03:31:37.526Z,21.55
2019-01-26T03:34:10.417Z,24.65
2019-01-26T03:36:43.789Z,23.00
2019-01-26T03:39:17.207Z,21.65
2019-01-26T03:41:49.398Z,21.62
2019-01-26T03:44:22.973Z,22.25
2019-01-26T03:46:56.619Z,22.40
2019-01-26T03:49:30.078Z,23.35
2019-01-26T03:52:03.555Z,24.70
2019-01-26T03:54:36.524Z,25.50
2019-01-26T03:57:09.629Z,23.90
2019-01-26T03:59:43.534Z,25.40
2019-01-26T04:02:16.656Z,24.80
2019-01-26T04:04:52.069Z,24.27
2019-01-26T04:07:24.671Z,25.45
2019-01-26T04:09:58.350Z,27.27
2019-01-26T04:12:31.481Z,25.20
2019-01-26T04:15:05.362Z,24.12
2019-01-26T04:17:38.539Z,22.98
2019-01-26T04:20:13.804Z,24.43
2019-01-26T04:22:47.368Z,24.50
2019-01-26T04:25:20.387Z,22.82
2019-01-26T04:27:54.259Z,24.23
2019-01-26T04:30:27.484Z,23.47
2019-01-26T04:32:59.742Z,22.37
2019-01-26T04:35:33.403Z,24.18
2019-01-26T04:38:06.755Z,23.22
2019-01-26T04:40:40.166Z,25.10
2019-01-26T04:43:13.439Z,21.68
2019-01-26T04:45:47.251Z,22.50
2019-01-26T04:48:20.860Z,25.43
2019-01-26T04:50:54.158Z,25.48
2019-01-26T04:53:27.592Z,22.73
2019-01-26T04:56:01.033Z,22.15
2019-01-26T04:58:34.037Z,21.12
2019-01-26T05:01:06.620Z,21.15
2019-01-26T05:03:39.711Z,20.62
2019-01-26T05:06:13.407Z,21.75
2019-01-26T05:08:48.410Z,22.62
2019-01-26T05:11:21.417Z,21.10
2019-01-26T05:13:54.423Z,23.50
2019-01-26T05:16:27.500Z,22.50
2019-01-26T05:19:00.955Z,22.90
2019-01-26T05:21:34.013Z,21.62
2019-01-26T05:24:07.009Z,22.75
2019-01-26T05:26:39.678Z,22.05
2019-01-26T05:29:13.767Z,21.55
2019-01-26T05:31:46.857Z,22.15
2019-01-26T05:34:19.850Z,22.13
2019-01-26T05:36:52.453Z,20.32
2019-01-26T05:39:25.834Z,20.25
2019-01-26T05:41:59.404Z,21.77
2019-01-26T05:44:33.226Z,19.85
2019-01-26T05:47:06.645Z,24.15
2019-01-26T05:49:40.170Z,21.62
2019-01-26T05:52:12.976Z,21.05
2019-01-26T05:54:46.245Z,21.55
2019-01-26T05:57:19.600Z,21.10
2019-01-26T05:59:53.536Z,22.05
2019-01-26T06:02:27.367Z,20.57
2019-01-26T06:05:00.301Z,23.20
2019-01-26T06:07:33.291Z,22.77
2019-01-26T06:10:05.993Z,20.45
2019-01-26T06:12:39.605Z,20.23
2019-01-26T06:15:13.088Z,19.62
2019-01-26T06:17:46.368Z,19.30
2019-01-26T06:20:20.814Z,19.87
2019-01-26T06:22:53.673Z,18.20
2019-01-26T06:25:27.271Z,18.90
2019-01-26T06:28:00.726Z,16.97
2019-01-26T06:30:34.409Z,18.65
2019-01-26T06:33:07.383Z,18.30
2019-01-26T06:35:40.370Z,18.87
2019-01-26T06:38:13.443Z,19.95
2019-01-26T06:40:46.764Z,21.15
2019-01-26T06:43:20.582Z,21.62
2019-01-26T06:45:53.686Z,20.60
2019-01-26T06:48:27.144Z,23.42
2019-01-26T06:51:00.646Z,22.00
2019-01-26T06:53:33.992Z,23.80
2019-01-26T06:56:06.936Z,21.93
2019-01-26T06:58:39.921Z,21.65
2019-01-26T07:01:12.897Z,21.93
2019-01-26T07:03:46.139Z,23.83
2019-01-26T07:06:26.553Z,23.25
2019-01-26T07:08:59.559Z,22.77
2019-01-26T07:11:32.222Z,21.35
2019-01-26T07:14:05.328Z,23.05
2019-01-26T07:16:37.894Z,20.72
2019-01-26T07:19:11.425Z,22.52
2019-01-26T07:21:45.333Z,23.18
2019-01-26T07:24:18.435Z,20.65
2019-01-26T07:26:52.090Z,20.75
2019-01-26T07:29:25.617Z,20.00
2019-01-26T07:31:58.979Z,19.00
2019-01-26T07:34:32.391Z,18.90
2019-01-26T07:37:05.468Z,16.52
2019-01-26T07:39:38.830Z,18.27
2019-01-26T07:42:11.564Z,15.78
2019-01-26T07:44:44.839Z,16.23
2019-01-26T07:47:18.860Z,17.52
2019-01-26T07:49:54.511Z,16.45
2019-01-26T07:52:27.505Z,15.08
2019-01-26T07:55:01.963Z,15.48
2019-01-26T07:57:35.313Z,15.83
2019-01-26T08:00:11.923Z,15.10
2019-01-26T08:02:44.933Z,15.32
2019-01-26T08:05:18.193Z,13.30
2019-01-26T08:07:52.407Z,14.33
2019-01-26T08:10:25.838Z,15.45
2019-01-26T08:12:58.872Z,15.55
2019-01-26T08:15:34.118Z,14.58
2019-01-26T08:18:08.223Z,14.65
2019-01-26T08:20:41.240Z,14.75
2019-01-26T08:23:14.599Z,15.53
2019-01-26T08:25:47.580Z,13.43
2019-01-26T08:28:20.794Z,12.55
2019-01-26T08:30:53.789Z,12.18
2019-01-26T08:33:26.995Z,13.65
2019-01-26T08:36:00.878Z,14.28
2019-01-26T08:38:34.189Z,13.80
2019-01-26T08:41:07.530Z,15.50
2019-01-26T08:43:40.676Z,13.03
2019-01-26T08:46:14.246Z,12.90
2019-01-26T08:48:47.811Z,13.75
2019-01-26T08:56:18.123Z,12.80
